createdAt,value
2023-12-19T00:01:15.388Z,75896.22
2023-12-19T00:11:17.822Z,75892.19
2023-12-19T00:21:25.121Z,75882.06
2023-12-19T00:31:27.804Z,75873.97
2023-12-19T00:41:33.117Z,75871.94
2023-12-19T00:51:35.378Z,75867.91
2023-12-19T01:01:39.918Z,75880.03
2023-12-19T01:11:46.945Z,75859.81
2023-12-19T01:21:51.568Z,75843.63
2023-12-19T01:31:59.953Z,75839.56
2023-12-19T01:42:04.273Z,75831.47
2023-12-19T01:52:09.612Z,75821.34
2023-12-19T02:02:11.937Z,75807.19
2023-12-19T02:12:14.437Z,75786.94
2023-12-19T02:22:24.146Z,75770.75
2023-12-19T02:32:26.666Z,75766.72
2023-12-19T02:42:29.922Z,75762.66
2023-12-19T02:52:41.907Z,75768.72
2023-12-19T03:02:46.669Z,75730.28
2023-12-19T03:12:49.311Z,75712.06
2023-12-19T03:22:56.413Z,75710.03
2023-12-19T03:33:01.157Z,75699.91
2023-12-19T03:43:09.601Z,75706.00
2023-12-19T03:53:14.017Z,75701.94
2023-12-19T04:03:23.186Z,75697.91
2023-12-19T04:13:27.814Z,75679.69
2023-12-19T04:23:36.006Z,75667.53
2023-12-19T04:33:40.476Z,75673.63
2023-12-19T04:43:42.784Z,75657.44
2023-12-19T04:53:47.362Z,75657.44
2023-12-19T05:03:49.684Z,75633.13
2023-12-19T05:13:52.518Z,75623.03
2023-12-19T05:23:59.070Z,75629.09
2023-12-19T05:34:01.279Z,75641.22
2023-12-19T05:44:06.086Z,75629.09
2023-12-19T05:54:11.922Z,75596.72
2023-12-19T06:04:20.089Z,75588.63
2023-12-19T06:14:32.191Z,75572.44
2023-12-19T06:24:34.478Z,75568.38
2023-12-19T06:34:37.477Z,75604.81
2023-12-19T06:44:39.702Z,75604.81
2023-12-19T06:54:45.279Z,75600.75
2023-12-19T07:04:50.859Z,75592.66
2023-12-19T07:14:53.385Z,75568.38
2023-12-19T07:25:00.473Z,75580.53
2023-12-19T07:35:06.967Z,75604.81
2023-12-19T07:45:09.878Z,75596.72
2023-12-19T07:55:17.774Z,75588.63
2023-12-19T08:05:25.138Z,75578.50
2023-12-19T08:15:30.176Z,75564.34
2023-12-19T08:25:35.028Z,75576.47
2023-12-19T08:35:40.583Z,75568.38
2023-12-19T08:45:47.589Z,75521.84
2023-12-19T08:55:54.611Z,75499.56
2023-12-19T09:05:59.222Z,75475.28
2023-12-19T09:16:07.042Z,75448.97
2023-12-19T09:26:15.511Z,75430.75
2023-12-19T09:36:26.319Z,75410.53
2023-12-19T09:46:35.623Z,75402.44
2023-12-19T09:56:38.001Z,75384.22
2023-12-19T10:06:51.871Z,75386.25
2023-12-19T10:16:55.762Z,75357.91
2023-12-19T10:27:01.708Z,75366.00
2023-12-19T10:37:19.588Z,75353.88
2023-12-19T10:47:25.762Z,75315.41
2023-12-19T10:57:33.806Z,75258.75
2023-12-19T11:07:39.436Z,75210.19
2023-12-19T11:17:49.208Z,75240.56
2023-12-19T11:27:57.139Z,75256.75
2023-12-19T11:38:23.113Z,75212.22
2023-12-19T11:48:43.518Z,75185.91
2023-12-19T11:58:51.823Z,75187.94
2023-12-19T12:08:54.767Z,75214.25
2023-12-19T12:19:10.134Z,75214.25
2023-12-19T12:29:17.927Z,75187.94
2023-12-19T12:39:22.458Z,75173.78
2023-12-19T12:49:25.275Z,75143.41
2023-12-19T12:59:33.105Z,75121.16
2023-12-19T13:09:40.502Z,75098.91
2023-12-19T13:19:44.126Z,75102.94
2023-12-19T13:29:46.336Z,75078.66
2023-12-19T13:39:53.329Z,75123.19
2023-12-19T13:49:56.243Z,75175.78
2023-12-19T14:00:03.251Z,75191.97
2023-12-19T14:10:16.432Z,75204.13
2023-12-19T14:20:18.906Z,75189.97
2023-12-19T14:30:29.164Z,75161.63
2023-12-19T14:40:36.979Z,75155.56
2023-12-19T14:50:39.487Z,75206.16
2023-12-19T15:00:41.745Z,75238.53
2023-12-19T15:10:44.492Z,75240.56
2023-12-19T15:20:48.807Z,75240.56
2023-12-19T15:30:53.620Z,75232.47
2023-12-19T15:40:59.767Z,75238.53
2023-12-19T15:51:03.667Z,75228.41
2023-12-19T16:01:05.919Z,75228.41
2023-12-19T16:11:10.696Z,75230.44
2023-12-19T16:21:14.405Z,75218.28
2023-12-19T16:31:17.263Z,75210.19
2023-12-19T16:41:23.641Z,75204.13
2023-12-19T16:51:29.501Z,75216.25
2023-12-19T17:01:34.112Z,75232.47
2023-12-19T17:11:36.485Z,75238.53
2023-12-19T17:21:39.366Z,75240.56
2023-12-19T17:31:44.602Z,75204.13
2023-12-19T17:41:46.830Z,75202.09
2023-12-19T17:51:54.430Z,75210.19
2023-12-19T18:02:00.315Z,75216.25
2023-12-19T18:12:07.111Z,75208.16
2023-12-19T18:22:11.536Z,75194.00
2023-12-19T18:32:14.600Z,75187.94
2023-12-19T18:42:16.987Z,75189.97
2023-12-19T18:52:20.436Z,75179.84
2023-12-19T19:02:25.308Z,75187.94
2023-12-19T19:12:32.258Z,75179.84
2023-12-19T19:22:37.248Z,75173.78
2023-12-19T19:32:42.489Z,75165.69
2023-12-19T19:42:48.011Z,75151.50
2023-12-19T19:52:50.468Z,75141.41
2023-12-19T20:02:52.796Z,75133.31
2023-12-19T20:12:55.992Z,75107.00
2023-12-19T20:23:00.950Z,75102.94
2023-12-19T20:33:03.565Z,75102.94
2023-12-19T20:43:06.095Z,75094.84
2023-12-19T20:53:10.972Z,75092.84
2023-12-19T21:03:16.139Z,75078.66
2023-12-19T21:13:24.054Z,75074.63
2023-12-19T21:23:26.652Z,75064.50
2023-12-19T21:33:30.461Z,75058.44
2023-12-19T21:43:33.835Z,75056.41
2023-12-19T21:53:37.672Z,75042.25
2023-12-19T22:03:42.348Z,75030.09
2023-12-19T22:13:46.918Z,75020.00
2023-12-19T22:23:52.248Z,75007.84
2023-12-19T22:33:57.011Z,74993.69
2023-12-19T22:44:04.678Z,74983.56
2023-12-19T22:54:10.063Z,74977.50
2023-12-19T23:04:12.405Z,74969.41
2023-12-19T23:14:19.737Z,74971.44
2023-12-19T23:24:24.843Z,74965.34
2023-12-19T23:34:27.247Z,74965.34
2023-12-19T23:44:31.936Z,74951.19
2023-12-19T23:54:36.402Z,74953.22
